createdAt,value
2023-05-23T00:00:26.077Z,100621.97
2023-05-23T00:02:54.202Z,100618.03
2023-05-23T00:05:21.655Z,100609.72
2023-05-23T00:07:48.952Z,100615.59
2023-05-23T00:10:16.321Z,100621.09
2023-05-23T00:12:43.599Z,100616.34
2023-05-23T00:15:11.130Z,100621.84
2023-05-23T00:17:39.577Z,100623.38
2023-05-23T00:20:12.028Z,100627.66
2023-05-23T00:22:42.832Z,100628.69
2023-05-23T00:25:11.142Z,100627.47
2023-05-23T00:27:38.509Z,100621.16
2023-05-23T00:30:06.539Z,100615.31
2023-05-23T00:32:34.493Z,100617.66
2023-05-23T00:35:01.808Z,100624.00
2023-05-23T00:37:29.153Z,100613.03
2023-05-23T00:39:56.467Z,100611.75
2023-05-23T00:42:23.697Z,100613.41
2023-05-23T00:44:51.009Z,100619.31
2023-05-23T00:47:18.715Z,100620.50
2023-05-23T00:49:46.333Z,100623.59
2023-05-23T00:52:15.486Z,100619.63
2023-05-23T00:54:42.813Z,100616.13
2023-05-23T00:57:10.234Z,100617.34
2023-05-23T00:59:40.781Z,100618.16
2023-05-23T01:02:09.147Z,100614.25
2023-05-23T01:04:37.132Z,100619.03
2023-05-23T01:07:05.013Z,100625.75
2023-05-23T01:09:32.621Z,100617.84
2023-05-23T01:12:02.863Z,100628.81
2023-05-23T01:14:42.333Z,100622.47
2023-05-23T01:17:17.130Z,100617.31
2023-05-23T01:20:05.953Z,100614.06
2023-05-23T01:23:00.476Z,100610.81
2023-05-23T01:25:58.509Z,100610.34
2023-05-23T01:28:33.601Z,100618.06
2023-05-23T01:31:08.044Z,100618.19
2023-05-23T01:33:36.337Z,100614.31
2023-05-23T01:36:04.111Z,100617.09
2023-05-23T01:38:31.821Z,100618.66
2023-05-23T01:41:00.742Z,100615.47
2023-05-23T01:43:28.213Z,100620.91
2023-05-23T01:45:57.102Z,100613.47
2023-05-23T01:48:27.671Z,100613.81
2023-05-23T01:50:56.681Z,100611.88
2023-05-23T01:53:25.522Z,100608.78
2023-05-23T01:55:53.106Z,100603.34
2023-05-23T01:58:22.275Z,100611.94
2023-05-23T02:00:49.894Z,100609.91
2023-05-23T02:03:17.434Z,100617.38
2023-05-23T02:05:44.807Z,100616.22
2023-05-23T02:08:12.173Z,100609.13
2023-05-23T02:10:39.514Z,100606.72
2023-05-23T02:13:06.806Z,100613.47
2023-05-23T02:15:34.117Z,100611.88
2023-05-23T02:18:03.381Z,100611.09
2023-05-23T02:20:31.495Z,100611.84
2023-05-23T02:22:58.816Z,100606.75
2023-05-23T02:25:26.108Z,100616.28
2023-05-23T02:27:53.390Z,100609.47
2023-05-23T02:30:20.732Z,100608.72
2023-05-23T02:32:52.300Z,100611.59
2023-05-23T02:35:20.694Z,100603.00
2023-05-23T02:37:47.971Z,100608.91
2023-05-23T02:40:19.210Z,100603.34
2023-05-23T02:42:46.500Z,100606.16
2023-05-23T02:45:13.820Z,100608.06
2023-05-23T02:47:43.860Z,100608.47
2023-05-23T02:50:11.501Z,100609.13
2023-05-23T02:52:38.852Z,100608.22
2023-05-23T02:55:09.209Z,100606.72
2023-05-23T02:57:41.695Z,100605.13
2023-05-23T03:00:10.284Z,100617.75
2023-05-23T03:02:37.780Z,100610.59
2023-05-23T03:05:06.858Z,100606.31
2023-05-23T03:07:34.296Z,100610.34
2023-05-23T03:10:01.626Z,100604.84
2023-05-23T03:12:29.415Z,100604.34
2023-05-23T03:14:56.795Z,100603.25
2023-05-23T03:17:25.829Z,100597.41
2023-05-23T03:19:53.247Z,100599.75
2023-05-23T03:22:20.676Z,100592.69
2023-05-23T03:24:48.087Z,100595.78
2023-05-23T03:27:15.423Z,100595.69
2023-05-23T03:29:42.961Z,100593.59
2023-05-23T03:32:10.853Z,100601.97
2023-05-23T03:34:38.671Z,100610.75
2023-05-23T03:37:06.170Z,100605.63
2023-05-23T03:39:33.494Z,100611.88
2023-05-23T03:42:01.004Z,100609.13
2023-05-23T03:44:28.618Z,100610.25
2023-05-23T03:46:56.078Z,100611.84
2023-05-23T03:49:23.406Z,100614.16
2023-05-23T03:51:51.536Z,100618.53
2023-05-23T03:54:19.130Z,100614.81
2023-05-23T03:56:46.515Z,100624.38
2023-05-23T03:59:13.872Z,100616.59
2023-05-23T04:01:41.323Z,100620.16
2023-05-23T04:04:12.174Z,100628.63
2023-05-23T04:06:39.663Z,100611.41
2023-05-23T04:09:06.988Z,100622.13
2023-05-23T04:11:38.792Z,100618.63
2023-05-23T04:14:06.131Z,100620.59
2023-05-23T04:16:36.303Z,100625.78
2023-05-23T04:19:05.929Z,100625.78
2023-05-23T04:21:34.140Z,100623.75
2023-05-23T04:24:09.881Z,100623.47
2023-05-23T04:26:37.334Z,100618.06
2023-05-23T04:29:06.462Z,100618.50
2023-05-23T04:31:36.607Z,100621.69
2023-05-23T04:34:04.250Z,100620.50
2023-05-23T04:36:38.097Z,100626.09
2023-05-23T04:39:06.043Z,100623.00
2023-05-23T04:41:38.697Z,100624.59
2023-05-23T04:44:20.154Z,100621.03
2023-05-23T04:47:03.009Z,100622.56
2023-05-23T04:49:43.661Z,100620.53
2023-05-23T04:52:11.575Z,100615.84
2023-05-23T04:54:44.985Z,100618.22
2023-05-23T04:57:12.925Z,100624.59
2023-05-23T04:59:40.577Z,100615.94
2023-05-23T05:02:09.690Z,100619.94
2023-05-23T05:04:37.615Z,100620.81
2023-05-23T05:07:06.328Z,100625.22
2023-05-23T05:09:34.715Z,100623.25
2023-05-23T05:12:02.270Z,100622.88
2023-05-23T05:14:31.018Z,100618.19
2023-05-23T05:16:58.538Z,100623.41
2023-05-23T05:19:33.081Z,100619.09
2023-05-23T05:22:01.366Z,100614.75
2023-05-23T05:24:30.423Z,100612.84
2023-05-23T05:26:57.858Z,100616.00
2023-05-23T05:29:28.804Z,100624.38
2023-05-23T05:31:56.284Z,100622.38
2023-05-23T05:34:23.608Z,100613.31
2023-05-23T05:36:55.889Z,100611.75
2023-05-23T05:39:26.375Z,100612.53
2023-05-23T05:41:53.834Z,100609.41
2023-05-23T05:44:21.172Z,100613.41
2023-05-23T05:46:49.010Z,100607.09
2023-05-23T05:49:17.161Z,100607.09
2023-05-23T05:51:46.249Z,100607.13
2023-05-23T05:54:13.666Z,100612.25
2023-05-23T05:56:42.294Z,100606.34
2023-05-23T05:59:11.091Z,100608.31
2023-05-23T06:01:38.936Z,100607.91
2023-05-23T06:04:06.816Z,100607.53
2023-05-23T06:06:35.208Z,100605.91
2023-05-23T06:09:03.263Z,100603.56
2023-05-23T06:11:30.888Z,100600.38
2023-05-23T06:13:58.487Z,100596.81
2023-05-23T06:16:26.421Z,100607.06
2023-05-23T06:18:53.754Z,100605.44
2023-05-23T06:21:25.359Z,100611.31
2023-05-23T06:23:53.068Z,100608.47
2023-05-23T06:26:20.376Z,100611.56
2023-05-23T06:28:48.136Z,100615.06
2023-05-23T06:31:15.568Z,100617.03
2023-05-23T06:33:43.154Z,100612.59
2023-05-23T06:36:11.550Z,100615.31
2023-05-23T06:38:41.749Z,100615.63
2023-05-23T06:41:09.101Z,100616.94
2023-05-23T06:43:37.457Z,100614.03
2023-05-23T06:46:16.042Z,100617.34
2023-05-23T06:48:43.501Z,100615.69
2023-05-23T06:51:11.855Z,100613.69
2023-05-23T06:53:39.311Z,100614.06
2023-05-23T06:56:07.146Z,100614.34
2023-05-23T06:58:41.894Z,100608.22
2023-05-23T07:01:10.972Z,100605.69
2023-05-23T07:03:45.770Z,100606.78
2023-05-23T07:06:13.395Z,100611.94
2023-05-23T07:08:41.720Z,100602.28
2023-05-23T07:11:09.793Z,100597.56
2023-05-23T07:13:40.388Z,100590.47
2023-05-23T07:16:08.468Z,100596.03
2023-05-23T07:18:41.601Z,100588.56
2023-05-23T07:21:08.967Z,100579.19
2023-05-23T07:23:37.526Z,100585.97
2023-05-23T07:26:05.084Z,100585.59
2023-05-23T07:28:41.048Z,100590.22
2023-05-23T07:31:09.523Z,100590.34
2023-05-23T07:33:38.149Z,100585.50
2023-05-23T07:36:06.819Z,100584.28
2023-05-23T07:38:34.136Z,100584.19
2023-05-23T07:41:10.818Z,100587.53
2023-05-23T07:43:43.213Z,100592.09
2023-05-23T07:46:10.556Z,100589.91
2023-05-23T07:48:38.775Z,100582.59
2023-05-23T07:51:06.277Z,100582.03
2023-05-23T07:53:34.967Z,100576.56
2023-05-23T07:56:03.817Z,100578.06
2023-05-23T07:58:36.448Z,100572.03
2023-05-23T08:01:03.895Z,100581.56
2023-05-23T08:03:51.591Z,100572.34
2023-05-23T08:06:25.388Z,100568.06
2023-05-23T08:08:53.214Z,100572.00
2023-05-23T08:11:20.664Z,100572.63
2023-05-23T08:13:51.460Z,100578.50
2023-05-23T08:16:47.858Z,100575.19
2023-05-23T08:19:21.487Z,100580.84
2023-05-23T08:21:51.853Z,100573.63
2023-05-23T08:24:22.260Z,100581.41
2023-05-23T08:26:50.495Z,100582.88
2023-05-23T08:29:19.130Z,100577.88
2023-05-23T08:31:47.261Z,100581.56
2023-05-23T08:34:14.958Z,100587.69
2023-05-23T08:36:43.230Z,100591.78
2023-05-23T08:39:15.694Z,100584.13
2023-05-23T08:41:49.894Z,100578.88
2023-05-23T08:44:17.704Z,100586.72
2023-05-23T08:46:53.817Z,100577.09
2023-05-23T08:49:45.197Z,100583.56
2023-05-23T08:52:14.849Z,100585.31
2023-05-23T08:54:46.300Z,100574.38
2023-05-23T08:57:15.196Z,100571.53
2023-05-23T08:59:49.236Z,100584.09
2023-05-23T09:02:18.242Z,100570.91
2023-05-23T09:04:47.494Z,100573.75
2023-05-23T09:07:19.710Z,100572.03
2023-05-23T09:09:50.909Z,100577.75
2023-05-23T09:12:18.498Z,100569.53
2023-05-23T09:14:48.231Z,100576.47
2023-05-23T09:17:19.274Z,100575.28
2023-05-23T09:19:47.295Z,100581.00
2023-05-23T09:22:41.642Z,100578.72
2023-05-23T09:25:15.026Z,100578.09
2023-05-23T09:27:47.462Z,100581.19
2023-05-23T09:30:17.610Z,100569.69
2023-05-23T09:32:59.732Z,100567.66
2023-05-23T09:35:30.622Z,100572.50
2023-05-23T09:38:01.662Z,100565.25
2023-05-23T09:40:35.533Z,100570.00
2023-05-23T09:43:05.490Z,100566.94
2023-05-23T09:45:33.787Z,100566.47
2023-05-23T09:48:02.733Z,100559.91
2023-05-23T09:50:33.869Z,100558.00
2023-05-23T09:53:02.451Z,100561.47
2023-05-23T09:55:30.360Z,100551.19
2023-05-23T09:57:59.316Z,100557.00
2023-05-23T10:00:28.414Z,100573.78
2023-05-23T10:03:12.559Z,100561.34
2023-05-23T10:05:51.927Z,100565.78
2023-05-23T10:08:39.051Z,100559.03
2023-05-23T10:11:16.619Z,100556.59
2023-05-23T10:13:45.696Z,100553.03
2023-05-23T10:16:44.275Z,100552.47
2023-05-23T10:19:23.942Z,100554.09
2023-05-23T10:21:59.697Z,100554.78
2023-05-23T10:24:27.841Z,100553.78
2023-05-23T10:26:55.837Z,100547.66
2023-05-23T10:29:23.265Z,100552.81
2023-05-23T10:31:52.868Z,100553.97
2023-05-23T10:34:41.940Z,100542.31
2023-05-23T10:37:17.484Z,100548.75
2023-05-23T10:40:09.986Z,100539.81
2023-05-23T10:42:50.061Z,100539.59
2023-05-23T10:45:22.314Z,100537.56
2023-05-23T10:47:52.500Z,100531.56
2023-05-23T10:50:37.315Z,100526.50
2023-05-23T10:53:06.133Z,100528.00
2023-05-23T10:55:35.810Z,100533.91
2023-05-23T10:58:10.802Z,100529.72
2023-05-23T11:00:38.531Z,100525.56
2023-05-23T11:03:09.166Z,100519.53
2023-05-23T11:05:43.448Z,100523.75
2023-05-23T11:08:14.638Z,100528.84
2023-05-23T11:11:01.180Z,100525.06
2023-05-23T11:13:55.658Z,100518.63
2023-05-23T11:16:32.972Z,100525.38
2023-05-23T11:19:21.965Z,100510.03
2023-05-23T11:21:52.972Z,100513.50
2023-05-23T11:24:20.819Z,100510.34
2023-05-23T11:27:00.328Z,100514.63
2023-05-23T11:29:29.183Z,100504.22
2023-05-23T11:31:57.422Z,100510.28
2023-05-23T11:34:27.744Z,100504.84
2023-05-23T11:36:55.849Z,100504.78
2023-05-23T11:39:23.787Z,100509.63
2023-05-23T11:42:02.675Z,100514.81
2023-05-23T11:44:30.639Z,100506.38
2023-05-23T11:47:06.742Z,100507.91
2023-05-23T11:49:38.020Z,100504.97
2023-05-23T11:52:08.437Z,100502.09
2023-05-23T11:54:35.824Z,100503.56
2023-05-23T11:57:04.187Z,100497.63
2023-05-23T11:59:31.544Z,100495.22
2023-05-23T12:01:58.900Z,100489.88
2023-05-23T12:04:27.222Z,100495.47
2023-05-23T12:06:54.838Z,100497.00
2023-05-23T12:09:23.985Z,100497.81
2023-05-23T12:11:51.356Z,100497.38
2023-05-23T12:14:18.706Z,100496.94
2023-05-23T12:16:47.345Z,100489.72
2023-05-23T12:19:17.339Z,100490.75
2023-05-23T12:21:47.099Z,100494.91
2023-05-23T12:24:14.541Z,100492.19
2023-05-23T12:26:49.681Z,100493.59
2023-05-23T12:29:35.556Z,100489.19
2023-05-23T12:32:06.955Z,100482.69
2023-05-23T12:34:34.377Z,100474.25
2023-05-23T12:39:37.124Z,100471.28
2023-05-23T12:42:11.570Z,100461.06
2023-05-23T12:44:41.193Z,100459.69
2023-05-23T12:47:08.600Z,100447.66
2023-05-23T12:49:37.175Z,100450.94
2023-05-23T12:52:04.718Z,100453.81
2023-05-23T12:54:32.089Z,100453.09
2023-05-23T12:56:59.382Z,100459.75
2023-05-23T12:59:26.689Z,100459.59
2023-05-23T13:01:55.004Z,100461.19
2023-05-23T13:04:22.364Z,100455.63
2023-05-23T13:06:49.782Z,100450.75
2023-05-23T13:09:17.045Z,100451.34
2023-05-23T13:11:44.408Z,100447.41
2023-05-23T13:14:11.879Z,100451.44
2023-05-23T13:16:39.466Z,100454.41
2023-05-23T13:19:07.147Z,100447.81
2023-05-23T13:21:34.581Z,100448.03
2023-05-23T13:24:01.929Z,100449.09
2023-05-23T13:26:29.205Z,100450.06
2023-05-23T13:28:56.581Z,100446.56
2023-05-23T13:31:23.861Z,100438.28
2023-05-23T13:33:51.560Z,100443.28
2023-05-23T13:36:18.849Z,100444.72
2023-05-23T13:38:49.481Z,100447.66
2023-05-23T13:41:17.101Z,100431.75
2023-05-23T13:43:44.502Z,100438.22
2023-05-23T13:46:12.417Z,100432.75
2023-05-23T13:48:40.553Z,100434.75
2023-05-23T13:51:08.043Z,100432.88
2023-05-23T13:53:35.704Z,100432.81
2023-05-23T13:56:05.847Z,100433.16
2023-05-23T13:58:33.303Z,100433.81
2023-05-23T14:01:00.658Z,100434.38
2023-05-23T14:03:28.121Z,100430.84
2023-05-23T14:05:55.532Z,100434.50
2023-05-23T14:08:22.919Z,100421.22
2023-05-23T14:10:50.244Z,100428.47
2023-05-23T14:13:18.177Z,100423.97
2023-05-23T14:15:46.402Z,100423.75
2023-05-23T14:18:13.938Z,100419.25
2023-05-23T14:20:41.351Z,100419.50
2023-05-23T14:23:08.750Z,100424.22
2023-05-23T14:25:36.176Z,100419.97
2023-05-23T14:28:03.816Z,100419.13
2023-05-23T14:30:31.169Z,100421.41
2023-05-23T14:32:58.589Z,100419.91
2023-05-23T14:35:26.315Z,100414.00
2023-05-23T14:37:53.725Z,100415.84
2023-05-23T14:40:21.062Z,100407.66
2023-05-23T14:42:48.724Z,100404.59
2023-05-23T14:45:18.552Z,100399.47
2023-05-23T14:47:46.844Z,100396.81
2023-05-23T14:50:14.290Z,100400.84
2023-05-23T14:52:41.644Z,100403.75
2023-05-23T14:55:09.121Z,100406.09
2023-05-23T14:57:36.564Z,100400.09
2023-05-23T15:00:07.478Z,100398.53
2023-05-23T15:02:35.054Z,100391.22
2023-05-23T15:05:02.503Z,100386.00
2023-05-23T15:07:29.930Z,100382.88
2023-05-23T15:09:57.256Z,100385.88
2023-05-23T15:12:24.655Z,100380.31
2023-05-23T15:14:51.996Z,100378.38
2023-05-23T15:17:23.065Z,100382.31
2023-05-23T15:19:53.284Z,100372.78
2023-05-23T15:22:36.610Z,100376.25
2023-05-23T15:25:10.236Z,100375.78
2023-05-23T15:27:37.690Z,100371.53
2023-05-23T15:30:05.655Z,100373.16
2023-05-23T15:32:33.086Z,100364.50
2023-05-23T15:35:00.406Z,100364.50
2023-05-23T15:37:27.804Z,100373.22
2023-05-23T15:39:55.181Z,100365.69
2023-05-23T15:42:22.509Z,100364.78
2023-05-23T15:44:49.899Z,100362.63
2023-05-23T15:47:18.336Z,100359.94
2023-05-23T15:49:45.625Z,100355.78
2023-05-23T15:52:13.126Z,100358.31
2023-05-23T15:54:40.576Z,100353.50
2023-05-23T15:57:07.876Z,100348.94
2023-05-23T15:59:37.420Z,100354.22
2023-05-23T16:02:06.432Z,100349.97
2023-05-23T16:04:36.126Z,100355.66
2023-05-23T16:07:03.841Z,100354.84
2023-05-23T16:09:31.479Z,100348.81
2023-05-23T16:11:59.194Z,100346.34
2023-05-23T16:14:26.483Z,100340.53
2023-05-23T16:16:56.805Z,100346.91
2023-05-23T16:19:24.199Z,100337.81
2023-05-23T16:21:51.615Z,100331.28
2023-05-23T16:24:19.433Z,100337.00
2023-05-23T16:26:49.447Z,100331.75
2023-05-23T16:29:16.729Z,100347.97
2023-05-23T16:31:44.102Z,100340.47
2023-05-23T16:34:11.410Z,100335.00
2023-05-23T16:36:38.886Z,100331.75
2023-05-23T16:39:06.175Z,100337.56
2023-05-23T16:41:33.562Z,100341.25
2023-05-23T16:44:01.158Z,100335.31
2023-05-23T16:46:28.489Z,100339.16
2023-05-23T16:48:56.109Z,100341.19
2023-05-23T16:51:23.463Z,100343.78
2023-05-23T16:53:50.826Z,100345.78
2023-05-23T16:56:18.143Z,100339.88
2023-05-23T16:58:45.617Z,100341.56
2023-05-23T17:01:14.007Z,100338.75
2023-05-23T17:03:41.697Z,100344.50
2023-05-23T17:06:09.201Z,100342.78
2023-05-23T17:08:36.472Z,100342.22
2023-05-23T17:11:03.928Z,100339.88
2023-05-23T17:13:31.740Z,100338.56
2023-05-23T17:15:59.070Z,100349.06
2023-05-23T17:18:26.537Z,100351.78
2023-05-23T17:20:56.714Z,100359.28
2023-05-23T17:23:24.049Z,100365.28
2023-05-23T17:25:51.720Z,100360.38
2023-05-23T17:28:19.005Z,100362.72
2023-05-23T17:30:46.351Z,100367.84
2023-05-23T17:33:13.680Z,100362.03
2023-05-23T17:35:41.353Z,100373.00
2023-05-23T17:38:08.979Z,100377.59
2023-05-23T17:40:36.414Z,100381.34
2023-05-23T17:43:04.284Z,100378.13
2023-05-23T17:45:31.591Z,100384.38
2023-05-23T17:48:03.390Z,100388.94
2023-05-23T17:50:31.076Z,100395.09
2023-05-23T17:52:59.106Z,100405.81
2023-05-23T17:55:26.771Z,100400.88
2023-05-23T17:57:54.223Z,100403.78
2023-05-23T18:00:21.655Z,100404.72
2023-05-23T18:02:51.101Z,100408.84
2023-05-23T18:05:20.785Z,100409.28
2023-05-23T18:07:48.124Z,100412.53
2023-05-23T18:10:16.017Z,100418.91
2023-05-23T18:12:43.543Z,100420.53
2023-05-23T18:15:11.236Z,100416.72
2023-05-23T18:17:38.622Z,100426.63
2023-05-23T18:20:07.593Z,100423.69
2023-05-23T18:22:35.093Z,100420.38
2023-05-23T18:25:04.080Z,100420.56
2023-05-23T18:27:31.804Z,100419.44
2023-05-23T18:29:59.080Z,100427.59
2023-05-23T18:32:26.409Z,100431.97
2023-05-23T18:34:53.767Z,100436.31
2023-05-23T18:37:21.034Z,100433.53
2023-05-23T18:39:48.381Z,100434.66
2023-05-23T18:42:15.759Z,100440.75
2023-05-23T18:44:43.102Z,100445.72
2023-05-23T18:47:12.886Z,100444.13
2023-05-23T18:49:41.332Z,100444.69
2023-05-23T18:52:08.858Z,100442.03
2023-05-23T18:54:37.965Z,100454.22
2023-05-23T18:57:05.536Z,100457.22
2023-05-23T18:59:32.835Z,100457.09
2023-05-23T19:02:00.476Z,100461.16
2023-05-23T19:04:27.856Z,100457.28
2023-05-23T19:06:55.214Z,100461.50
2023-05-23T19:09:23.015Z,100470.19
2023-05-23T19:11:50.590Z,100463.00
2023-05-23T19:14:19.175Z,100467.41
2023-05-23T19:16:46.613Z,100469.41
2023-05-23T19:19:15.556Z,100473.44
2023-05-23T19:21:43.336Z,100476.03
2023-05-23T19:24:12.072Z,100480.19
2023-05-23T19:26:42.384Z,100485.84
2023-05-23T19:29:10.537Z,100492.13
2023-05-23T19:31:38.093Z,100492.97
2023-05-23T19:34:08.589Z,100505.00
2023-05-23T19:36:36.613Z,100503.53
2023-05-23T19:39:04.636Z,100500.25
2023-05-23T19:41:35.092Z,100503.81
2023-05-23T19:44:02.728Z,100508.94
2023-05-23T19:46:30.256Z,100506.59
2023-05-23T19:48:57.938Z,100506.66
2023-05-23T19:51:26.289Z,100513.78
2023-05-23T19:53:54.608Z,100517.75
2023-05-23T19:56:25.949Z,100515.75
2023-05-23T19:58:53.289Z,100521.31
2023-05-23T20:01:20.789Z,100522.03
2023-05-23T20:03:51.476Z,100521.84
2023-05-23T20:06:20.577Z,100530.06
2023-05-23T20:08:48.070Z,100528.19
2023-05-23T20:11:15.535Z,100528.38
2023-05-23T20:13:42.845Z,100531.28
2023-05-23T20:16:10.357Z,100543.22
2023-05-23T20:18:37.818Z,100544.00
2023-05-23T20:21:05.449Z,100553.31
2023-05-23T20:23:32.816Z,100554.19
2023-05-23T20:26:00.698Z,100551.91
2023-05-23T20:28:28.028Z,100558.22
2023-05-23T20:30:55.669Z,100558.53
2023-05-23T20:33:23.037Z,100569.28
2023-05-23T20:35:50.302Z,100573.38
2023-05-23T20:38:20.982Z,100572.28
2023-05-23T20:40:52.440Z,100568.47
2023-05-23T20:43:22.287Z,100569.66
2023-05-23T20:45:50.451Z,100578.28
2023-05-23T20:48:17.736Z,100574.19
2023-05-23T20:50:45.599Z,100575.69
2023-05-23T20:53:12.944Z,100570.00
2023-05-23T20:55:40.688Z,100578.38
2023-05-23T20:58:08.781Z,100584.31
2023-05-23T21:00:36.632Z,100589.19
2023-05-23T21:03:04.066Z,100586.88
2023-05-23T21:05:31.368Z,100581.41
2023-05-23T21:07:58.615Z,100584.50
2023-05-23T21:10:26.479Z,100592.34
2023-05-23T21:12:53.844Z,100590.00
2023-05-23T21:15:21.421Z,100591.91
2023-05-23T21:17:50.727Z,100595.47
2023-05-23T21:20:20.748Z,100588.78
2023-05-23T21:22:49.243Z,100598.66
2023-05-23T21:25:17.105Z,100594.25
2023-05-23T21:27:46.776Z,100584.63
2023-05-23T21:30:15.454Z,100590.22
2023-05-23T21:32:43.641Z,100585.59
2023-05-23T21:35:11.235Z,100584.09
2023-05-23T21:37:38.532Z,100583.38
2023-05-23T21:40:06.838Z,100588.63
2023-05-23T21:42:34.190Z,100589.72
2023-05-23T21:45:01.536Z,100580.28
2023-05-23T21:47:31.610Z,100589.34
2023-05-23T21:49:58.883Z,100588.19
2023-05-23T21:52:26.219Z,100587.06
2023-05-23T21:54:53.499Z,100583.16
2023-05-23T21:57:20.979Z,100593.94
2023-05-23T21:59:48.313Z,100594.38
2023-05-23T22:02:15.765Z,100593.16
2023-05-23T22:04:44.732Z,100600.00
2023-05-23T22:07:12.304Z,100605.91
2023-05-23T22:09:39.602Z,100607.06
2023-05-23T22:12:07.492Z,100611.53
2023-05-23T22:14:34.842Z,100611.91
2023-05-23T22:17:02.411Z,100607.94
2023-05-23T22:19:32.774Z,100607.53
2023-05-23T22:22:00.305Z,100607.91
2023-05-23T22:24:27.650Z,100601.41
2023-05-23T22:26:54.997Z,100597.78
2023-05-23T22:29:22.292Z,100592.94
2023-05-23T22:31:49.903Z,100596.84
2023-05-23T22:34:17.185Z,100607.31
2023-05-23T22:36:44.458Z,100598.28
2023-05-23T22:39:11.810Z,100595.13
2023-05-23T22:41:39.385Z,100595.13
2023-05-23T22:44:06.774Z,100593.91
2023-05-23T22:46:34.220Z,100592.38
2023-05-23T22:49:03.572Z,100594.69
2023-05-23T22:51:36.407Z,100590.84
2023-05-23T22:54:03.739Z,100595.69
2023-05-23T22:56:31.005Z,100595.38
2023-05-23T22:58:58.278Z,100599.31
2023-05-23T23:01:25.932Z,100587.91
2023-05-23T23:03:53.289Z,100587.13
2023-05-23T23:06:21.046Z,100579.97
2023-05-23T23:08:49.743Z,100574.84
2023-05-23T23:11:17.181Z,100571.28
2023-05-23T23:13:44.515Z,100569.31
2023-05-23T23:16:12.063Z,100574.06
2023-05-23T23:18:39.311Z,100572.06
2023-05-23T23:21:07.073Z,100568.09
2023-05-23T23:23:34.641Z,100563.72
2023-05-23T23:26:01.961Z,100563.78
2023-05-23T23:28:29.221Z,100563.75
2023-05-23T23:30:56.590Z,100562.47
2023-05-23T23:33:23.911Z,100562.53
2023-05-23T23:35:51.840Z,100569.66
2023-05-23T23:38:19.209Z,100570.50
2023-05-23T23:40:46.516Z,100568.97
2023-05-23T23:43:14.009Z,100567.03
2023-05-23T23:45:41.303Z,100569.09
2023-05-23T23:48:08.714Z,100561.94
2023-05-23T23:50:36.112Z,100560.75
2023-05-23T23:53:03.539Z,100564.34
2023-05-23T23:55:30.833Z,100566.66
2023-05-23T23:57:58.150Z,100558.41
